createdAt,value
2018-08-03T00:00:46.760Z,2.60
2018-08-03T00:03:15.144Z,2.30
2018-08-03T00:05:43.508Z,2.40
2018-08-03T00:08:11.866Z,2.10
2018-08-03T00:10:41.324Z,2.57
2018-08-03T00:13:09.698Z,2.30
2018-08-03T00:15:38.144Z,2.10
2018-08-03T00:18:06.511Z,2.73
2018-08-03T00:20:34.892Z,2.40
2018-08-03T00:23:03.273Z,2.33
2018-08-03T00:25:31.624Z,2.60
2018-08-03T00:27:59.990Z,2.27
2018-08-03T00:30:28.430Z,2.30
2018-08-03T00:32:56.804Z,2.80
2018-08-03T00:35:25.124Z,2.33
2018-08-03T00:37:53.472Z,2.40
2018-08-03T00:40:21.808Z,2.57
2018-08-03T00:42:50.306Z,2.33
2018-08-03T00:45:18.592Z,2.50
2018-08-03T00:47:46.988Z,2.50
2018-08-03T00:50:15.824Z,2.40
2018-08-03T00:52:44.163Z,2.53
2018-08-03T00:55:12.600Z,2.40
2018-08-03T00:57:40.988Z,2.30
2018-08-03T01:00:09.468Z,2.53
2018-08-03T01:02:37.780Z,2.40
2018-08-03T01:05:06.271Z,2.87
2018-08-03T01:07:34.767Z,2.47
2018-08-03T01:10:03.137Z,2.30
2018-08-03T01:12:31.536Z,2.60
2018-08-03T01:14:59.913Z,2.70
2018-08-03T01:17:28.333Z,2.80
2018-08-03T01:19:56.776Z,2.97
2018-08-03T01:22:25.190Z,2.77
2018-08-03T01:24:53.619Z,2.83
2018-08-03T01:27:21.972Z,2.53
2018-08-03T01:29:50.336Z,2.60
2018-08-03T01:32:18.658Z,2.80
2018-08-03T01:34:47.024Z,2.40
2018-08-03T01:37:15.354Z,2.37
2018-08-03T01:39:43.783Z,2.63
2018-08-03T01:42:12.131Z,2.70
2018-08-03T01:44:40.505Z,3.50
2018-08-03T01:47:08.847Z,2.73
2018-08-03T01:49:37.272Z,2.90
2018-08-03T01:52:05.680Z,2.50
2018-08-03T01:54:34.063Z,2.77
2018-08-03T01:57:02.506Z,2.80
2018-08-03T01:59:30.838Z,2.50
2018-08-03T02:01:59.357Z,3.17
2018-08-03T02:04:27.711Z,2.87
2018-08-03T02:06:56.501Z,2.70
2018-08-03T02:09:24.567Z,3.13
2018-08-03T02:11:53.053Z,3.30
2018-08-03T02:14:21.482Z,3.00
2018-08-03T02:16:49.947Z,2.70
2018-08-03T02:19:18.375Z,3.00
2018-08-03T02:21:46.680Z,2.93
2018-08-03T02:24:15.244Z,2.70
2018-08-03T02:26:43.624Z,3.03
2018-08-03T02:29:12.059Z,2.83
2018-08-03T02:31:40.483Z,2.90
2018-08-03T02:34:08.924Z,3.40
2018-08-03T02:36:37.382Z,2.93
2018-08-03T02:39:08.064Z,2.97
2018-08-03T02:41:36.528Z,2.83
2018-08-03T02:44:04.916Z,2.60
2018-08-03T02:46:33.316Z,2.87
2018-08-03T02:49:01.660Z,2.90
2018-08-03T02:51:30.021Z,3.03
2018-08-03T02:53:58.080Z,2.73
2018-08-03T02:56:26.472Z,2.97
2018-08-03T02:58:54.767Z,2.90
2018-08-03T03:01:23.228Z,2.63
2018-08-03T03:03:51.923Z,3.27
2018-08-03T03:06:20.692Z,2.87
2018-08-03T03:08:49.108Z,2.70
2018-08-03T03:11:17.573Z,2.77
2018-08-03T03:13:45.692Z,3.40
2018-08-03T03:16:14.021Z,2.90
2018-08-03T03:18:42.411Z,3.30
2018-08-03T03:21:10.788Z,3.50
2018-08-03T03:23:39.196Z,3.20
2018-08-03T03:26:07.512Z,3.10
2018-08-03T03:28:35.872Z,3.10
2018-08-03T03:31:04.304Z,2.90
2018-08-03T03:33:32.739Z,2.80
2018-08-03T03:36:01.037Z,3.10
2018-08-03T03:38:29.365Z,3.57
2018-08-03T03:40:57.761Z,3.13
2018-08-03T03:43:26.205Z,3.40
2018-08-03T03:45:54.685Z,3.57
2018-08-03T03:48:23.034Z,3.57
2018-08-03T03:50:51.643Z,3.07
2018-08-03T03:53:19.957Z,3.80
2018-08-03T03:55:48.396Z,3.50
2018-08-03T03:58:16.811Z,3.37
2018-08-03T04:00:45.304Z,3.43
2018-08-03T04:03:13.753Z,3.50
2018-08-03T04:05:42.036Z,3.17
2018-08-03T04:08:10.491Z,3.40
2018-08-03T04:10:39.288Z,3.30
2018-08-03T04:13:07.649Z,3.27
2018-08-03T04:15:36.081Z,3.10
2018-08-03T04:18:04.419Z,3.47
2018-08-03T04:20:32.760Z,3.37
2018-08-03T04:23:01.102Z,3.33
2018-08-03T04:25:29.523Z,3.80
2018-08-03T04:27:57.840Z,3.70
2018-08-03T04:30:26.244Z,3.50
2018-08-03T04:32:54.740Z,3.43
2018-08-03T04:35:23.106Z,3.40
2018-08-03T04:37:51.484Z,4.10
2018-08-03T04:40:19.887Z,3.80
2018-08-03T04:42:48.262Z,4.00
2018-08-03T04:45:16.620Z,3.90
2018-08-03T04:47:45.004Z,3.87
2018-08-03T04:50:13.412Z,3.23
2018-08-03T04:52:41.795Z,3.90
2018-08-03T04:55:10.317Z,4.40
2018-08-03T04:57:38.701Z,3.87
2018-08-03T05:00:07.170Z,4.50
2018-08-03T05:02:35.549Z,3.70
2018-08-03T05:05:03.976Z,4.13
2018-08-03T05:07:32.415Z,4.07
2018-08-03T05:10:00.528Z,4.40
2018-08-03T05:12:29.036Z,4.80
2018-08-03T05:14:57.452Z,4.33
2018-08-03T05:17:25.805Z,3.87
2018-08-03T05:19:54.189Z,5.33
2018-08-03T05:22:22.532Z,4.10
2018-08-03T05:24:51.050Z,4.20
2018-08-03T05:27:19.475Z,4.17
2018-08-03T05:29:47.896Z,4.70
2018-08-03T05:32:16.247Z,4.10
2018-08-03T05:34:44.673Z,4.77
2018-08-03T05:37:13.040Z,4.37
2018-08-03T05:39:41.555Z,4.90
2018-08-03T05:42:09.988Z,4.13
2018-08-03T05:44:38.337Z,4.50
2018-08-03T05:47:06.708Z,4.03
2018-08-03T05:49:35.053Z,4.87
2018-08-03T05:52:03.503Z,4.30
2018-08-03T05:54:31.805Z,4.50
2018-08-03T05:57:00.204Z,4.37
2018-08-03T05:59:28.693Z,4.40
2018-08-03T06:01:57.161Z,4.37
2018-08-03T06:04:25.502Z,4.70
2018-08-03T06:06:53.832Z,4.73
2018-08-03T06:09:22.165Z,4.37
2018-08-03T06:11:50.495Z,4.00
2018-08-03T06:14:18.820Z,6.20
2018-08-03T06:16:47.185Z,5.80
2018-08-03T06:19:15.604Z,5.33
2018-08-03T06:21:44.033Z,4.33
2018-08-03T06:24:12.430Z,4.60
2018-08-03T06:26:40.836Z,4.47
2018-08-03T06:29:09.300Z,4.63
2018-08-03T06:31:37.733Z,4.50
2018-08-03T06:34:06.382Z,4.40
2018-08-03T06:36:34.718Z,3.83
2018-08-03T06:39:03.340Z,4.12
2018-08-03T06:41:31.787Z,4.00
2018-08-03T06:44:00.168Z,4.23
2018-08-03T06:46:28.592Z,4.93
2018-08-03T06:48:56.958Z,4.67
2018-08-03T06:51:25.361Z,4.43
2018-08-03T06:53:53.802Z,4.27
2018-08-03T06:56:22.208Z,4.03
2018-08-03T06:58:50.755Z,4.07
2018-08-03T07:01:19.193Z,4.20
2018-08-03T07:03:47.608Z,3.67
2018-08-03T07:06:16.081Z,3.40
2018-08-03T07:08:44.533Z,5.60
2018-08-03T07:11:12.999Z,4.40
2018-08-03T07:13:41.419Z,3.50
2018-08-03T07:16:09.838Z,3.23
2018-08-03T07:18:38.317Z,3.73
2018-08-03T07:21:26.262Z,3.60
2018-08-03T07:23:55.936Z,5.10
2018-08-03T07:26:25.037Z,3.50
2018-08-03T07:28:54.160Z,3.90
2018-08-03T07:31:23.512Z,6.07
2018-08-03T07:33:51.814Z,5.23
2018-08-03T07:36:19.960Z,5.53
2018-08-03T07:38:49.115Z,4.10
2018-08-03T07:41:17.465Z,4.43
2018-08-03T07:43:45.838Z,4.30
2018-08-03T07:46:14.276Z,3.27
2018-08-03T07:48:43.712Z,4.00
2018-08-03T07:51:12.144Z,4.40
2018-08-03T07:53:40.524Z,4.50
2018-08-03T07:56:08.909Z,5.77
2018-08-03T07:58:37.308Z,3.97
2018-08-03T08:01:05.821Z,4.77
2018-08-03T08:03:35.234Z,4.73
2018-08-03T08:06:04.371Z,5.07
2018-08-03T08:08:32.833Z,5.43
2018-08-03T08:11:01.198Z,5.37
2018-08-03T08:13:29.508Z,5.13
2018-08-03T08:15:57.996Z,5.77
2018-08-03T08:18:26.407Z,4.40
2018-08-03T08:20:55.164Z,4.63
2018-08-03T08:23:23.371Z,4.27
2018-08-03T08:25:52.089Z,4.17
2018-08-03T08:28:20.602Z,4.30
2018-08-03T08:30:49.025Z,5.00
2018-08-03T08:33:17.543Z,4.23
2018-08-03T08:35:45.634Z,3.73
2018-08-03T08:38:14.002Z,4.87
2018-08-03T08:40:42.396Z,4.00
2018-08-03T08:43:10.854Z,4.10
2018-08-03T08:45:39.473Z,4.30
2018-08-03T08:48:07.944Z,3.83
2018-08-03T08:50:36.361Z,4.10
2018-08-03T08:53:04.748Z,4.20
2018-08-03T08:55:33.098Z,3.67
2018-08-03T08:58:01.551Z,3.50
2018-08-03T09:00:30.118Z,4.30
2018-08-03T09:02:58.553Z,3.70
2018-08-03T09:05:27.019Z,3.77
2018-08-03T09:07:55.495Z,4.00
2018-08-03T09:10:23.900Z,3.80
2018-08-03T09:12:52.324Z,3.60
2018-08-03T09:15:20.947Z,3.80
2018-08-03T09:17:49.382Z,3.60
2018-08-03T09:20:17.996Z,3.40
2018-08-03T09:22:47.677Z,3.47
2018-08-03T09:25:16.162Z,3.67
2018-08-03T09:27:44.591Z,3.90
2018-08-03T09:30:13.153Z,3.37
2018-08-03T09:32:41.668Z,3.83
2018-08-03T09:35:10.163Z,3.93
2018-08-03T09:37:38.548Z,4.23
2018-08-03T09:40:07.574Z,3.80
2018-08-03T09:42:36.030Z,3.90
2018-08-03T09:45:05.604Z,3.87
2018-08-03T09:47:34.029Z,3.50
2018-08-03T09:50:05.734Z,3.60
2018-08-03T09:52:34.521Z,3.80
2018-08-03T09:55:03.846Z,3.70
2018-08-03T09:57:32.179Z,3.27
2018-08-03T10:00:00.597Z,3.53
2018-08-03T10:02:28.974Z,3.67
2018-08-03T10:04:57.434Z,3.77
2018-08-03T10:07:25.939Z,3.90
2018-08-03T10:09:54.860Z,3.80
2018-08-03T10:12:23.357Z,3.63
2018-08-03T10:14:54.001Z,4.00
2018-08-03T10:17:23.480Z,3.70
2018-08-03T10:19:53.067Z,3.43
2018-08-03T10:22:21.615Z,3.50
2018-08-03T10:24:50.063Z,3.43
2018-08-03T10:27:18.487Z,3.50
2018-08-03T10:29:47.554Z,3.90
2018-08-03T10:32:15.928Z,3.33
2018-08-03T10:34:44.429Z,3.47
2018-08-03T10:37:12.950Z,3.50
2018-08-03T10:39:41.372Z,3.20
2018-08-03T10:42:09.892Z,3.17
2018-08-03T10:44:38.436Z,3.67
2018-08-03T10:47:06.944Z,3.37
2018-08-03T10:49:35.445Z,3.83
2018-08-03T10:52:03.913Z,3.10
2018-08-03T10:54:32.360Z,3.33
2018-08-03T10:57:00.780Z,3.57
2018-08-03T10:59:29.201Z,3.37
2018-08-03T11:01:58.571Z,3.37
2018-08-03T11:04:27.016Z,3.30
2018-08-03T11:06:56.436Z,2.97
2018-08-03T11:09:24.938Z,3.53
2018-08-03T11:11:53.428Z,3.00
2018-08-03T11:14:21.847Z,3.30
2018-08-03T11:16:50.428Z,3.20
2018-08-03T11:19:18.773Z,3.50
2018-08-03T11:21:47.248Z,3.50
2018-08-03T11:24:15.725Z,3.07
2018-08-03T11:26:44.215Z,3.00
2018-08-03T11:29:12.711Z,3.30
2018-08-03T11:31:41.147Z,3.47
2018-08-03T11:34:10.472Z,3.27
2018-08-03T11:36:39.012Z,3.47
2018-08-03T11:39:09.905Z,3.53
2018-08-03T11:41:38.374Z,4.00
2018-08-03T11:44:06.928Z,3.60
2018-08-03T11:46:35.465Z,3.30
2018-08-03T11:49:03.872Z,3.77
2018-08-03T11:51:32.341Z,3.83
2018-08-03T11:54:00.760Z,3.45
2018-08-03T11:56:29.232Z,3.45
2018-08-03T11:58:57.391Z,3.10
2018-08-03T12:01:25.862Z,3.60
2018-08-03T12:03:54.338Z,3.50
2018-08-03T12:06:23.128Z,3.25
2018-08-03T12:08:51.921Z,3.22
2018-08-03T12:11:20.404Z,3.22
2018-08-03T12:13:48.854Z,2.95
2018-08-03T12:16:17.378Z,2.98
2018-08-03T12:18:45.916Z,2.80
2018-08-03T12:21:14.317Z,3.08
2018-08-03T12:23:42.811Z,2.80
2018-08-03T12:26:11.215Z,2.87
2018-08-03T12:28:39.728Z,2.50
2018-08-03T12:31:08.234Z,2.98
2018-08-03T12:33:36.729Z,2.77
2018-08-03T12:36:05.091Z,2.95
2018-08-03T12:38:33.490Z,3.50
2018-08-03T12:41:01.957Z,3.30
2018-08-03T12:43:30.391Z,3.12
2018-08-03T12:45:58.871Z,2.70
2018-08-03T12:48:27.329Z,2.40
2018-08-03T12:50:55.974Z,2.58
2018-08-03T12:53:24.576Z,2.62
2018-08-03T12:55:53.097Z,2.80
2018-08-03T12:58:21.711Z,2.17
2018-08-03T13:00:50.184Z,2.50
2018-08-03T13:03:18.776Z,2.35
2018-08-03T13:05:47.292Z,2.50
2018-08-03T13:08:16.369Z,2.87
2018-08-03T13:10:45.294Z,2.58
2018-08-03T13:13:14.089Z,2.30
2018-08-03T13:15:42.612Z,2.60
2018-08-03T13:18:12.377Z,2.58
2018-08-03T13:20:40.854Z,2.55
2018-08-03T13:23:16.422Z,2.02
2018-08-03T13:25:44.969Z,2.58
2018-08-03T13:28:14.635Z,2.37
2018-08-03T13:30:43.107Z,2.70
2018-08-03T13:33:11.590Z,2.42
2018-08-03T13:38:48.353Z,2.30
2018-08-03T13:41:22.235Z,2.40
2018-08-03T13:43:51.044Z,2.15
2018-08-03T13:46:19.252Z,2.30
2018-08-03T13:48:48.685Z,2.33
2018-08-03T13:51:17.946Z,2.70
2018-08-03T13:53:47.051Z,2.12
2018-08-03T13:56:16.234Z,2.10
2018-08-03T13:58:45.415Z,2.42
2018-08-03T14:01:25.308Z,2.12
2018-08-03T14:03:54.022Z,2.10
2018-08-03T14:06:22.409Z,2.47
2018-08-03T14:08:50.834Z,1.90
2018-08-03T14:11:19.779Z,2.30
2018-08-03T14:13:48.824Z,2.20
2018-08-03T14:16:17.307Z,1.75
2018-08-03T14:18:51.968Z,2.02
2018-08-03T14:21:20.686Z,2.20
2018-08-03T14:23:49.334Z,2.15
2018-08-03T14:26:17.727Z,2.30
2018-08-03T14:28:46.200Z,1.80
2018-08-03T14:31:14.719Z,1.95
2018-08-03T14:33:43.178Z,1.98
2018-08-03T14:36:11.659Z,1.90
2018-08-03T14:38:40.124Z,2.12
2018-08-03T14:41:08.620Z,1.95
2018-08-03T14:43:37.009Z,2.10
2018-08-03T14:46:05.448Z,1.90
2018-08-03T14:48:34.055Z,2.00
2018-08-03T14:51:02.432Z,2.08
2018-08-03T14:53:30.817Z,2.20
2018-08-03T14:55:59.221Z,2.05
2018-08-03T14:58:27.698Z,1.80
2018-08-03T15:00:56.253Z,1.95
2018-08-03T15:03:24.656Z,1.70
2018-08-03T15:06:15.668Z,2.15
2018-08-03T15:11:21.809Z,1.72
2018-08-03T15:13:57.219Z,2.20
2018-08-03T15:16:40.126Z,1.92
2018-08-03T15:32:47.006Z,2.10
2018-08-03T15:35:20.094Z,2.62
2018-08-03T15:37:55.710Z,1.87
2018-08-03T15:40:30.381Z,1.98
2018-08-03T15:43:04.673Z,1.95
2018-08-03T15:45:36.773Z,2.40
2018-08-03T15:48:13.756Z,1.80
2018-08-03T15:50:43.160Z,1.98
2018-08-03T15:55:58.095Z,1.77
2018-08-03T15:58:41.862Z,1.70
2018-08-03T16:01:13.247Z,1.77
2018-08-03T16:06:29.021Z,1.80
2018-08-03T16:11:39.743Z,1.65
2018-08-03T16:14:08.340Z,1.92
2018-08-03T16:22:59.384Z,1.47
2018-08-03T16:25:28.038Z,1.30
2018-08-03T16:31:04.044Z,1.30
2018-08-03T16:33:40.578Z,1.60
2018-08-03T16:36:20.251Z,1.37
2018-08-03T16:41:40.312Z,1.40
2018-08-03T16:44:13.014Z,5.45
2018-08-03T16:46:42.833Z,15.72
2018-08-03T16:49:11.380Z,4.22
2018-08-03T16:51:39.567Z,14.35
2018-08-03T16:54:08.225Z,12.85
2018-08-03T16:56:37.343Z,4.40
2018-08-03T16:59:08.356Z,4.42
2018-08-03T17:01:36.685Z,2.33
2018-08-03T17:04:06.162Z,2.72
2018-08-03T17:06:34.689Z,2.58
2018-08-03T17:09:03.898Z,1.60
2018-08-03T17:11:33.582Z,1.50
2018-08-03T17:14:02.003Z,1.15
2018-08-03T17:16:30.384Z,0.95
2018-08-03T17:18:58.848Z,0.82
2018-08-03T17:21:27.272Z,0.60
2018-08-03T17:23:55.779Z,0.80
2018-08-03T17:26:24.278Z,0.88
2018-08-03T17:28:53.055Z,0.80
2018-08-03T17:31:21.833Z,1.05
2018-08-03T17:33:50.288Z,2.10
2018-08-03T17:36:18.859Z,1.40
2018-08-03T17:38:48.662Z,1.62
2018-08-03T17:41:17.081Z,3.25
2018-08-03T17:43:45.738Z,2.42
2018-08-03T17:46:14.154Z,1.40
2018-08-03T17:48:42.666Z,1.05
2018-08-03T17:51:11.368Z,0.93
2018-08-03T17:53:41.350Z,0.88
2018-08-03T17:56:10.745Z,0.80
2018-08-03T17:58:39.189Z,1.00
2018-08-03T18:01:14.418Z,0.90
2018-08-03T18:03:45.615Z,0.90
2018-08-03T18:06:14.379Z,0.80
2018-08-03T18:08:43.262Z,0.90
2018-08-03T18:11:12.165Z,0.90
2018-08-03T18:13:40.653Z,0.90
2018-08-03T18:16:09.901Z,1.10
2018-08-03T18:18:38.381Z,1.03
2018-08-03T18:21:07.024Z,0.90
2018-08-03T18:23:35.423Z,1.10
2018-08-03T18:26:03.860Z,1.30
2018-08-03T18:28:32.230Z,1.20
2018-08-03T18:31:00.698Z,1.20
2018-08-03T18:33:33.076Z,1.30
2018-08-03T18:36:01.688Z,1.40
2018-08-03T18:38:30.252Z,1.10
2018-08-03T18:40:58.657Z,1.00
2018-08-03T18:43:27.041Z,0.90
2018-08-03T18:45:55.509Z,0.80
2018-08-03T18:48:23.880Z,0.70
2018-08-03T18:50:52.488Z,0.97
2018-08-03T18:53:20.906Z,0.73
2018-08-03T18:55:49.269Z,0.80
2018-08-03T18:58:17.769Z,1.10
2018-08-03T19:00:48.573Z,0.90
2018-08-03T19:03:32.449Z,1.00
2018-08-03T19:06:04.678Z,1.00
2018-08-03T19:08:33.316Z,1.00
2018-08-03T19:11:01.817Z,1.20
2018-08-03T19:13:30.562Z,0.93
2018-08-03T19:15:58.974Z,1.17
2018-08-03T19:18:44.946Z,1.00
2018-08-03T19:25:38.156Z,0.83
2018-08-03T19:28:06.320Z,1.30
2018-08-03T19:30:34.745Z,1.40
2018-08-03T19:33:03.052Z,1.40
2018-08-03T19:35:31.423Z,1.50
2018-08-03T19:37:59.926Z,1.70
2018-08-03T19:40:28.375Z,1.50
2018-08-03T19:42:57.214Z,1.80
2018-08-03T19:45:25.592Z,1.50
2018-08-03T19:47:53.944Z,1.73
2018-08-03T19:50:23.205Z,1.50
2018-08-03T19:52:51.592Z,1.47
2018-08-03T19:55:23.075Z,1.27
2018-08-03T19:57:51.515Z,1.50
2018-08-03T20:00:19.956Z,1.40
2018-08-03T20:02:49.143Z,1.50
2018-08-03T20:10:10.576Z,1.47
2018-08-03T20:12:57.785Z,1.70
2018-08-03T20:15:32.419Z,1.37
2018-08-03T20:18:20.513Z,1.40
2018-08-03T20:24:13.694Z,1.50
2018-08-03T20:26:50.696Z,1.20
2018-08-03T20:30:04.951Z,1.33
2018-08-03T20:32:48.816Z,1.20
2018-08-03T20:35:25.595Z,1.17
2018-08-03T20:38:22.402Z,1.40
2018-08-03T20:41:22.757Z,1.00
2018-08-03T20:43:56.985Z,1.25
2018-08-03T20:47:02.694Z,1.40
2018-08-03T20:50:26.728Z,1.20
2018-08-03T20:53:08.158Z,1.43
2018-08-03T20:59:52.496Z,0.97
2018-08-03T21:02:24.065Z,1.40
2018-08-03T21:05:10.848Z,1.07
2018-08-03T21:07:43.469Z,1.33
2018-08-03T21:10:44.881Z,1.13
2018-08-03T21:13:15.645Z,1.47
2018-08-03T21:15:48.932Z,1.10
2018-08-03T21:21:22.363Z,1.00
2018-08-03T21:23:50.753Z,1.20
2018-08-03T21:26:19.149Z,1.30
2018-08-03T21:28:47.581Z,1.20
2018-08-03T21:31:16.618Z,1.20
2018-08-03T21:33:45.086Z,1.20
2018-08-03T21:36:13.545Z,1.17
2018-08-03T21:38:42.045Z,1.30
2018-08-03T21:41:10.639Z,1.20
2018-08-03T21:43:39.016Z,1.53
2018-08-03T21:46:07.722Z,1.33
2018-08-03T21:48:36.142Z,1.37
2018-08-03T21:51:04.617Z,1.30
2018-08-03T21:53:33.701Z,1.47
2018-08-03T21:56:02.148Z,1.33
2018-08-03T21:58:30.617Z,1.50
2018-08-03T22:01:00.132Z,1.40
2018-08-03T22:03:28.516Z,1.30
2018-08-03T22:05:57.012Z,1.30
2018-08-03T22:08:25.492Z,1.30
2018-08-03T22:10:54.384Z,1.30
2018-08-03T22:13:22.761Z,1.20
2018-08-03T22:15:51.160Z,1.37
2018-08-03T22:18:19.564Z,1.23
2018-08-03T22:20:48.004Z,1.30
2018-08-03T22:23:20.200Z,1.40
2018-08-03T22:25:48.842Z,1.40
2018-08-03T22:28:19.446Z,1.40
2018-08-03T22:30:47.858Z,1.20
2018-08-03T22:33:16.677Z,1.50
2018-08-03T22:35:45.094Z,1.30
2018-08-03T22:38:13.467Z,1.90
2018-08-03T22:40:41.833Z,1.57
2018-08-03T22:43:10.225Z,1.40
2018-08-03T22:45:38.697Z,1.43
2018-08-03T22:48:07.056Z,1.57
2018-08-03T22:50:35.598Z,1.40
2018-08-03T22:53:03.977Z,1.80
2018-08-03T22:55:32.410Z,1.63
2018-08-03T22:58:00.796Z,1.63
2018-08-03T23:00:30.269Z,1.57
2018-08-03T23:02:58.589Z,1.77
2018-08-03T23:05:26.740Z,1.80
2018-08-03T23:07:55.076Z,1.70
2018-08-03T23:10:23.596Z,1.90
2018-08-03T23:12:51.996Z,1.90
2018-08-03T23:15:20.401Z,1.77
2018-08-03T23:17:48.852Z,1.57
2018-08-03T23:20:17.224Z,1.70
2018-08-03T23:22:45.607Z,1.97
2018-08-03T23:25:13.997Z,2.07
2018-08-03T23:27:42.349Z,1.60
2018-08-03T23:30:11.484Z,2.10
2018-08-03T23:32:40.287Z,1.83
2018-08-03T23:35:08.900Z,2.03
2018-08-03T23:37:37.300Z,1.70
2018-08-03T23:40:05.816Z,2.20
2018-08-03T23:42:34.886Z,2.00
2018-08-03T23:45:03.359Z,2.10
2018-08-03T23:47:31.851Z,2.27
2018-08-03T23:50:00.674Z,2.23
2018-08-03T23:52:29.115Z,2.17
2018-08-03T23:54:57.444Z,1.97
2018-08-03T23:57:25.835Z,2.23
2018-08-03T23:59:54.284Z,2.23
